sensor_id;sensor_type;location;lat;lon;timestamp;P1;durP1;ratioP1;P2;durP2;ratioP2
6392;SDS011;3229;42.674;23.282;2022-09-09T00:02:10;9.00;;;7.53;;
6392;SDS011;3229;42.674;23.282;2022-09-09T00:04:46;7.73;;;6.93;;
6392;SDS011;3229;42.674;23.282;2022-09-09T00:07:26;8.03;;;7.33;;
6392;SDS011;3229;42.674;23.282;2022-09-09T00:10:06;13.17;;;7.70;;
6392;SDS011;3229;42.674;23.282;2022-09-09T00:12:47;7.60;;;6.90;;
6392;SDS011;3229;42.674;23.282;2022-09-09T00:15:21;8.60;;;6.97;;
6392;SDS011;3229;42.674;23.282;2022-09-09T00:17:52;7.20;;;6.53;;
6392;SDS011;3229;42.674;23.282;2022-09-09T00:20:24;8.20;;;7.40;;
6392;SDS011;3229;42.674;23.282;2022-09-09T00:22:57;8.83;;;7.80;;
6392;SDS011;3229;42.674;23.282;2022-09-09T00:25:32;8.03;;;7.23;;
6392;SDS011;3229;42.674;23.282;2022-09-09T00:28:07;8.60;;;7.53;;
6392;SDS011;3229;42.674;23.282;2022-09-09T00:30:43;9.33;;;7.23;;
6392;SDS011;3229;42.674;23.282;2022-09-09T00:33:13;8.00;;;7.30;;
6392;SDS011;3229;42.674;23.282;2022-09-09T00:35:44;8.17;;;7.27;;
6392;SDS011;3229;42.674;23.282;2022-09-09T00:38:13;12.97;;;7.77;;
6392;SDS011;3229;42.674;23.282;2022-09-09T00:40:45;12.03;;;7.70;;
6392;SDS011;3229;42.674;23.282;2022-09-09T00:43:24;13.33;;;7.93;;
6392;SDS011;3229;42.674;23.282;2022-09-09T00:49:02;9.13;;;8.33;;
6392;SDS011;3229;42.674;23.282;2022-09-09T00:51:39;8.77;;;7.87;;
6392;SDS011;3229;42.674;23.282;2022-09-09T00:54:22;13.50;;;7.80;;
6392;SDS011;3229;42.674;23.282;2022-09-09T00:57:00;8.87;;;7.43;;
6392;SDS011;3229;42.674;23.282;2022-09-09T00:59:40;8.77;;;7.87;;
6392;SDS011;3229;42.674;23.282;2022-09-09T01:02:13;12.63;;;7.83;;
6392;SDS011;3229;42.674;23.282;2022-09-09T01:04:50;9.07;;;7.20;;
6392;SDS011;3229;42.674;23.282;2022-09-09T01:07:18;9.03;;;7.67;;
6392;SDS011;3229;42.674;23.282;2022-09-09T01:09:50;9.23;;;7.60;;
6392;SDS011;3229;42.674;23.282;2022-09-09T01:12:24;9.90;;;8.13;;
6392;SDS011;3229;42.674;23.282;2022-09-09T01:14:59;9.13;;;7.10;;
6392;SDS011;3229;42.674;23.282;2022-09-09T01:17:36;9.83;;;8.10;;
6392;SDS011;3229;42.674;23.282;2022-09-09T01:20:14;8.23;;;7.30;;
6392;SDS011;3229;42.674;23.282;2022-09-09T01:22:49;8.73;;;7.83;;
6392;SDS011;3229;42.674;23.282;2022-09-09T01:28:34;8.93;;;8.13;;
6392;SDS011;3229;42.674;23.282;2022-09-09T01:31:03;9.87;;;6.90;;
6392;SDS011;3229;42.674;23.282;2022-09-09T01:33:32;9.13;;;8.23;;
6392;SDS011;3229;42.674;23.282;2022-09-09T01:36:00;8.63;;;7.53;;
6392;SDS011;3229;42.674;23.282;2022-09-09T01:38:31;8.37;;;7.23;;
6392;SDS011;3229;42.674;23.282;2022-09-09T01:40:59;7.90;;;7.10;;
6392;SDS011;3229;42.674;23.282;2022-09-09T01:43:28;10.03;;;8.20;;
6392;SDS011;3229;42.674;23.282;2022-09-09T01:45:56;10.80;;;8.07;;
6392;SDS011;3229;42.674;23.282;2022-09-09T01:48:28;8.13;;;7.40;;
6392;SDS011;3229;42.674;23.282;2022-09-09T01:51:02;7.60;;;6.90;;
6392;SDS011;3229;42.674;23.282;2022-09-09T01:53:29;9.10;;;7.63;;
6392;SDS011;3229;42.674;23.282;2022-09-09T01:55:59;8.00;;;7.27;;
6392;SDS011;3229;42.674;23.282;2022-09-09T01:58:41;8.03;;;7.23;;
6392;SDS011;3229;42.674;23.282;2022-09-09T02:01:22;9.00;;;7.50;;
6392;SDS011;3229;42.674;23.282;2022-09-09T02:03:58;8.27;;;7.47;;
6392;SDS011;3229;42.674;23.282;2022-09-09T02:06:31;8.97;;;7.80;;
6392;SDS011;3229;42.674;23.282;2022-09-09T02:09:03;8.80;;;7.53;;
6392;SDS011;3229;42.674;23.282;2022-09-09T02:11:32;7.50;;;6.67;;
6392;SDS011;3229;42.674;23.282;2022-09-09T02:14:04;9.53;;;7.50;;
6392;SDS011;3229;42.674;23.282;2022-09-09T02:16:37;8.50;;;7.70;;
6392;SDS011;3229;42.674;23.282;2022-09-09T02:19:08;8.20;;;7.40;;
6392;SDS011;3229;42.674;23.282;2022-09-09T02:21:41;9.30;;;7.80;;
6392;SDS011;3229;42.674;23.282;2022-09-09T02:24:10;8.10;;;7.40;;
6392;SDS011;3229;42.674;23.282;2022-09-09T02:26:41;9.20;;;7.53;;
6392;SDS011;3229;42.674;23.282;2022-09-09T02:29:13;11.33;;;7.67;;
6392;SDS011;3229;42.674;23.282;2022-09-09T02:31:44;9.60;;;8.10;;
6392;SDS011;3229;42.674;23.282;2022-09-09T02:34:14;9.07;;;7.90;;
6392;SDS011;3229;42.674;23.282;2022-09-09T02:36:44;11.17;;;8.17;;
6392;SDS011;3229;42.674;23.282;2022-09-09T02:39:13;11.43;;;8.00;;
6392;SDS011;3229;42.674;23.282;2022-09-09T02:41:40;10.87;;;7.20;;
6392;SDS011;3229;42.674;23.282;2022-09-09T02:44:09;8.23;;;7.23;;
6392;SDS011;3229;42.674;23.282;2022-09-09T02:46:44;9.33;;;7.77;;
6392;SDS011;3229;42.674;23.282;2022-09-09T02:49:25;9.03;;;7.87;;
6392;SDS011;3229;42.674;23.282;2022-09-09T02:52:01;9.73;;;7.53;;
6392;SDS011;3229;42.674;23.282;2022-09-09T02:54:32;11.00;;;8.07;;
6392;SDS011;3229;42.674;23.282;2022-09-09T02:57:02;13.17;;;7.70;;
6392;SDS011;3229;42.674;23.282;2022-09-09T02:59:34;10.43;;;7.80;;
6392;SDS011;3229;42.674;23.282;2022-09-09T03:02:03;13.00;;;7.40;;
6392;SDS011;3229;42.674;23.282;2022-09-09T03:04:31;11.03;;;7.63;;
6392;SDS011;3229;42.674;23.282;2022-09-09T03:06:58;9.57;;;7.63;;
6392;SDS011;3229;42.674;23.282;2022-09-09T03:09:25;9.07;;;7.83;;
6392;SDS011;3229;42.674;23.282;2022-09-09T03:11:52;10.83;;;7.57;;
6392;SDS011;3229;42.674;23.282;2022-09-09T03:14:20;8.17;;;7.43;;
6392;SDS011;3229;42.674;23.282;2022-09-09T03:16:49;10.23;;;7.90;;
6392;SDS011;3229;42.674;23.282;2022-09-09T03:19:18;12.37;;;8.47;;
6392;SDS011;3229;42.674;23.282;2022-09-09T03:21:45;11.43;;;8.53;;
6392;SDS011;3229;42.674;23.282;2022-09-09T03:24:12;9.13;;;8.23;;
6392;SDS011;3229;42.674;23.282;2022-09-09T03:26:41;13.73;;;7.80;;
6392;SDS011;3229;42.674;23.282;2022-09-09T03:29:10;8.83;;;8.03;;
6392;SDS011;3229;42.674;23.282;2022-09-09T03:31:38;9.07;;;8.07;;
6392;SDS011;3229;42.674;23.282;2022-09-09T03:34:05;8.37;;;7.47;;
6392;SDS011;3229;42.674;23.282;2022-09-09T03:36:34;10.13;;;8.30;;
6392;SDS011;3229;42.674;23.282;2022-09-09T03:39:02;9.27;;;8.20;;
6392;SDS011;3229;42.674;23.282;2022-09-09T03:41:29;12.03;;;8.07;;
6392;SDS011;3229;42.674;23.282;2022-09-09T03:43:59;10.93;;;8.57;;
6392;SDS011;3229;42.674;23.282;2022-09-09T03:46:26;10.53;;;8.23;;
6392;SDS011;3229;42.674;23.282;2022-09-09T03:48:53;11.17;;;8.50;;
6392;SDS011;3229;42.674;23.282;2022-09-09T03:51:20;9.90;;;8.27;;
6392;SDS011;3229;42.674;23.282;2022-09-09T03:53:48;9.67;;;8.40;;
6392;SDS011;3229;42.674;23.282;2022-09-09T03:56:15;12.13;;;8.57;;
6392;SDS011;3229;42.674;23.282;2022-09-09T03:58:45;9.37;;;8.47;;
6392;SDS011;3229;42.674;23.282;2022-09-09T04:01:14;11.00;;;8.87;;
6392;SDS011;3229;42.674;23.282;2022-09-09T04:03:42;11.13;;;8.60;;
6392;SDS011;3229;42.674;23.282;2022-09-09T04:06:11;10.87;;;7.83;;
6392;SDS011;3229;42.674;23.282;2022-09-09T04:08:40;12.90;;;9.17;;
6392;SDS011;3229;42.674;23.282;2022-09-09T04:11:08;11.43;;;9.23;;
6392;SDS011;3229;42.674;23.282;2022-09-09T04:13:36;12.30;;;8.90;;
6392;SDS011;3229;42.674;23.282;2022-09-09T04:16:04;13.20;;;8.53;;
6392;SDS011;3229;42.674;23.282;2022-09-09T04:18:32;11.63;;;8.73;;
6392;SDS011;3229;42.674;23.282;2022-09-09T04:20:59;10.00;;;9.00;;
6392;SDS011;3229;42.674;23.282;2022-09-09T04:23:27;17.13;;;9.20;;
6392;SDS011;3229;42.674;23.282;2022-09-09T04:25:55;10.30;;;8.27;;
6392;SDS011;3229;42.674;23.282;2022-09-09T04:28:25;10.00;;;8.30;;
6392;SDS011;3229;42.674;23.282;2022-09-09T04:30:56;9.70;;;8.70;;
6392;SDS011;3229;42.674;23.282;2022-09-09T04:33:29;11.77;;;8.67;;
6392;SDS011;3229;42.674;23.282;2022-09-09T04:35:56;11.00;;;9.97;;
6392;SDS011;3229;42.674;23.282;2022-09-09T04:38:27;12.70;;;9.30;;
6392;SDS011;3229;42.674;23.282;2022-09-09T04:41:09;11.43;;;9.17;;
6392;SDS011;3229;42.674;23.282;2022-09-09T04:43:38;14.00;;;9.27;;
6392;SDS011;3229;42.674;23.282;2022-09-09T04:46:05;12.63;;;8.60;;
6392;SDS011;3229;42.674;23.282;2022-09-09T04:48:32;11.93;;;9.77;;
6392;SDS011;3229;42.674;23.282;2022-09-09T04:51:00;9.97;;;8.60;;
6392;SDS011;3229;42.674;23.282;2022-09-09T04:53:28;12.17;;;8.70;;
6392;SDS011;3229;42.674;23.282;2022-09-09T04:56:00;12.43;;;9.13;;
6392;SDS011;3229;42.674;23.282;2022-09-09T04:58:29;11.80;;;9.33;;
6392;SDS011;3229;42.674;23.282;2022-09-09T05:01:06;12.07;;;10.23;;
6392;SDS011;3229;42.674;23.282;2022-09-09T05:03:33;11.70;;;9.87;;
6392;SDS011;3229;42.674;23.282;2022-09-09T05:06:04;14.63;;;9.90;;
6392;SDS011;3229;42.674;23.282;2022-09-09T05:08:33;14.57;;;9.80;;
6392;SDS011;3229;42.674;23.282;2022-09-09T05:11:00;16.83;;;10.83;;
6392;SDS011;3229;42.674;23.282;2022-09-09T05:13:28;18.10;;;10.97;;
6392;SDS011;3229;42.674;23.282;2022-09-09T05:15:57;14.17;;;10.53;;
6392;SDS011;3229;42.674;23.282;2022-09-09T05:18:27;14.37;;;10.03;;
6392;SDS011;3229;42.674;23.282;2022-09-09T05:20:59;11.40;;;10.20;;
6392;SDS011;3229;42.674;23.282;2022-09-09T05:23:29;12.53;;;9.90;;
6392;SDS011;3229;42.674;23.282;2022-09-09T05:25:57;11.80;;;9.87;;
6392;SDS011;3229;42.674;23.282;2022-09-09T05:28:24;12.73;;;9.60;;
6392;SDS011;3229;42.674;23.282;2022-09-09T05:30:55;13.47;;;10.40;;
6392;SDS011;3229;42.674;23.282;2022-09-09T05:33:27;11.43;;;10.13;;
6392;SDS011;3229;42.674;23.282;2022-09-09T05:35:57;11.27;;;9.35;;
6392;SDS011;3229;42.674;23.282;2022-09-09T05:38:25;15.13;;;9.95;;
6392;SDS011;3229;42.674;23.282;2022-09-09T05:40:52;16.80;;;9.98;;
6392;SDS011;3229;42.674;23.282;2022-09-09T05:43:19;15.85;;;9.73;;
6392;SDS011;3229;42.674;23.282;2022-09-09T05:45:46;12.63;;;9.88;;
6392;SDS011;3229;42.674;23.282;2022-09-09T05:48:13;13.20;;;10.18;;
6392;SDS011;3229;42.674;23.282;2022-09-09T05:50:42;14.00;;;9.27;;
6392;SDS011;3229;42.674;23.282;2022-09-09T05:53:10;17.65;;;11.02;;
6392;SDS011;3229;42.674;23.282;2022-09-09T05:55:37;12.63;;;9.30;;
6392;SDS011;3229;42.674;23.282;2022-09-09T05:58:04;16.05;;;10.73;;
6392;SDS011;3229;42.674;23.282;2022-09-09T06:00:30;20.08;;;10.90;;
6392;SDS011;3229;42.674;23.282;2022-09-09T06:02:57;19.67;;;10.50;;
6392;SDS011;3229;42.674;23.282;2022-09-09T06:05:25;12.30;;;10.18;;
6392;SDS011;3229;42.674;23.282;2022-09-09T06:07:55;13.23;;;9.32;;
6392;SDS011;3229;42.674;23.282;2022-09-09T06:10:22;16.05;;;9.73;;
6392;SDS011;3229;42.674;23.282;2022-09-09T06:12:49;16.83;;;11.45;;
6392;SDS011;3229;42.674;23.282;2022-09-09T06:15:19;16.05;;;11.35;;
6392;SDS011;3229;42.674;23.282;2022-09-09T06:17:45;15.85;;;10.82;;
6392;SDS011;3229;42.674;23.282;2022-09-09T06:20:12;20.02;;;10.40;;
6392;SDS011;3229;42.674;23.282;2022-09-09T06:22:39;13.32;;;11.18;;
6392;SDS011;3229;42.674;23.282;2022-09-09T06:25:09;10.70;;;9.45;;
6392;SDS011;3229;42.674;23.282;2022-09-09T06:27:35;11.95;;;9.95;;
6392;SDS011;3229;42.674;23.282;2022-09-09T06:30:02;13.20;;;10.38;;
6392;SDS011;3229;42.674;23.282;2022-09-09T06:32:30;14.07;;;10.13;;
6392;SDS011;3229;42.674;23.282;2022-09-09T06:34:59;18.88;;;10.45;;
6392;SDS011;3229;42.674;23.282;2022-09-09T06:37:27;17.98;;;10.60;;
6392;SDS011;3229;42.674;23.282;2022-09-09T06:39:56;14.38;;;11.57;;
6392;SDS011;3229;42.674;23.282;2022-09-09T06:42:24;14.55;;;9.55;;
6392;SDS011;3229;42.674;23.282;2022-09-09T06:44:52;14.02;;;10.23;;
6392;SDS011;3229;42.674;23.282;2022-09-09T06:47:19;16.90;;;10.90;;
6392;SDS011;3229;42.674;23.282;2022-09-09T06:49:45;13.18;;;9.50;;
6392;SDS011;3229;42.674;23.282;2022-09-09T06:52:12;12.80;;;10.55;;
6392;SDS011;3229;42.674;23.282;2022-09-09T06:54:42;18.75;;;10.88;;
6392;SDS011;3229;42.674;23.282;2022-09-09T06:57:11;21.38;;;10.50;;
6392;SDS011;3229;42.674;23.282;2022-09-09T06:59:39;10.85;;;9.70;;
6392;SDS011;3229;42.674;23.282;2022-09-09T07:02:07;22.15;;;11.45;;
6392;SDS011;3229;42.674;23.282;2022-09-09T07:04:34;14.68;;;10.18;;
6392;SDS011;3229;42.674;23.282;2022-09-09T07:07:02;20.95;;;9.07;;
6392;SDS011;3229;42.674;23.282;2022-09-09T07:09:29;12.52;;;10.07;;
6392;SDS011;3229;42.674;23.282;2022-09-09T07:11:56;12.05;;;8.75;;
6392;SDS011;3229;42.674;23.282;2022-09-09T07:14:24;15.40;;;8.80;;
6392;SDS011;3229;42.674;23.282;2022-09-09T07:16:53;13.80;;;9.43;;
6392;SDS011;3229;42.674;23.282;2022-09-09T07:19:20;14.90;;;9.40;;
6392;SDS011;3229;42.674;23.282;2022-09-09T07:21:47;13.80;;;9.93;;
6392;SDS011;3229;42.674;23.282;2022-09-09T07:24:14;15.88;;;10.20;;
6392;SDS011;3229;42.674;23.282;2022-09-09T07:26:41;13.15;;;9.00;;
6392;SDS011;3229;42.674;23.282;2022-09-09T07:29:09;13.90;;;8.57;;
6392;SDS011;3229;42.674;23.282;2022-09-09T07:31:39;12.18;;;8.10;;
6392;SDS011;3229;42.674;23.282;2022-09-09T07:34:07;11.63;;;7.78;;
6392;SDS011;3229;42.674;23.282;2022-09-09T07:36:35;11.43;;;8.25;;
6392;SDS011;3229;42.674;23.282;2022-09-09T07:39:03;13.50;;;8.48;;
6392;SDS011;3229;42.674;23.282;2022-09-09T07:41:32;9.77;;;8.07;;
6392;SDS011;3229;42.674;23.282;2022-09-09T07:44:03;13.15;;;7.72;;
6392;SDS011;3229;42.674;23.282;2022-09-09T07:46:31;15.68;;;8.38;;
6392;SDS011;3229;42.674;23.282;2022-09-09T07:48:59;10.50;;;7.50;;
6392;SDS011;3229;42.674;23.282;2022-09-09T07:51:28;10.63;;;7.25;;
6392;SDS011;3229;42.674;23.282;2022-09-09T07:53:58;12.27;;;6.95;;
6392;SDS011;3229;42.674;23.282;2022-09-09T07:56:27;8.88;;;7.45;;
6392;SDS011;3229;42.674;23.282;2022-09-09T07:58:55;9.75;;;7.03;;
6392;SDS011;3229;42.674;23.282;2022-09-09T08:01:24;10.82;;;6.93;;
6392;SDS011;3229;42.674;23.282;2022-09-09T08:03:53;12.10;;;8.00;;
6392;SDS011;3229;42.674;23.282;2022-09-09T08:06:24;12.18;;;8.15;;
6392;SDS011;3229;42.674;23.282;2022-09-09T08:08:55;8.63;;;7.47;;
6392;SDS011;3229;42.674;23.282;2022-09-09T08:11:23;11.95;;;7.70;;
6392;SDS011;3229;42.674;23.282;2022-09-09T08:13:52;8.57;;;6.22;;
6392;SDS011;3229;42.674;23.282;2022-09-09T08:16:20;11.55;;;7.00;;
6392;SDS011;3229;42.674;23.282;2022-09-09T08:18:49;10.63;;;6.97;;
6392;SDS011;3229;42.674;23.282;2022-09-09T08:21:17;8.43;;;5.97;;
6392;SDS011;3229;42.674;23.282;2022-09-09T08:23:47;9.73;;;6.60;;
6392;SDS011;3229;42.674;23.282;2022-09-09T08:26:18;10.30;;;6.65;;
6392;SDS011;3229;42.674;23.282;2022-09-09T08:28:47;11.05;;;7.13;;
6392;SDS011;3229;42.674;23.282;2022-09-09T08:31:17;6.90;;;6.25;;
6392;SDS011;3229;42.674;23.282;2022-09-09T08:33:46;9.40;;;6.57;;
6392;SDS011;3229;42.674;23.282;2022-09-09T08:36:13;11.80;;;6.57;;
6392;SDS011;3229;42.674;23.282;2022-09-09T08:38:42;11.23;;;7.00;;
6392;SDS011;3229;42.674;23.282;2022-09-09T08:41:19;9.18;;;6.25;;
6392;SDS011;3229;42.674;23.282;2022-09-09T08:44:02;11.30;;;5.82;;
6392;SDS011;3229;42.674;23.282;2022-09-09T08:46:35;8.13;;;5.85;;
6392;SDS011;3229;42.674;23.282;2022-09-09T08:49:16;9.70;;;5.93;;
6392;SDS011;3229;42.674;23.282;2022-09-09T08:51:53;8.18;;;5.32;;
6392;SDS011;3229;42.674;23.282;2022-09-09T08:54:22;9.30;;;6.30;;
6392;SDS011;3229;42.674;23.282;2022-09-09T08:56:51;12.02;;;6.22;;
6392;SDS011;3229;42.674;23.282;2022-09-09T08:59:18;10.00;;;6.60;;
6392;SDS011;3229;42.674;23.282;2022-09-09T09:01:49;8.95;;;5.63;;
6392;SDS011;3229;42.674;23.282;2022-09-09T09:04:31;6.75;;;5.40;;
6392;SDS011;3229;42.674;23.282;2022-09-09T09:07:08;6.35;;;5.38;;
6392;SDS011;3229;42.674;23.282;2022-09-09T09:09:46;7.45;;;5.72;;
6392;SDS011;3229;42.674;23.282;2022-09-09T09:12:25;10.38;;;5.43;;
6392;SDS011;3229;42.674;23.282;2022-09-09T09:14:55;8.98;;;5.28;;
6392;SDS011;3229;42.674;23.282;2022-09-09T09:17:25;8.70;;;5.07;;
6392;SDS011;3229;42.674;23.282;2022-09-09T09:19:56;8.77;;;5.63;;
6392;SDS011;3229;42.674;23.282;2022-09-09T09:22:26;9.55;;;5.50;;
6392;SDS011;3229;42.674;23.282;2022-09-09T09:25:02;6.07;;;5.47;;
6392;SDS011;3229;42.674;23.282;2022-09-09T09:27:40;9.05;;;5.93;;
6392;SDS011;3229;42.674;23.282;2022-09-09T09:30:16;9.10;;;4.93;;
6392;SDS011;3229;42.674;23.282;2022-09-09T09:32:48;7.15;;;4.78;;
6392;SDS011;3229;42.674;23.282;2022-09-09T09:35:19;10.30;;;5.82;;
6392;SDS011;3229;42.674;23.282;2022-09-09T09:37:46;7.70;;;4.95;;
6392;SDS011;3229;42.674;23.282;2022-09-09T09:40:15;7.05;;;5.20;;
6392;SDS011;3229;42.674;23.282;2022-09-09T09:42:53;8.65;;;5.82;;
6392;SDS011;3229;42.674;23.282;2022-09-09T09:45:25;9.40;;;5.68;;
6392;SDS011;3229;42.674;23.282;2022-09-09T09:48:00;10.60;;;6.85;;
6392;SDS011;3229;42.674;23.282;2022-09-09T09:50:29;6.78;;;4.97;;
6392;SDS011;3229;42.674;23.282;2022-09-09T09:52:58;9.07;;;5.55;;
6392;SDS011;3229;42.674;23.282;2022-09-09T09:55:27;5.43;;;4.70;;
6392;SDS011;3229;42.674;23.282;2022-09-09T09:58:01;7.22;;;4.65;;
6392;SDS011;3229;42.674;23.282;2022-09-09T10:00:30;14.32;;;5.35;;
6392;SDS011;3229;42.674;23.282;2022-09-09T10:02:57;7.05;;;4.32;;
6392;SDS011;3229;42.674;23.282;2022-09-09T10:05:26;6.38;;;4.60;;
6392;SDS011;3229;42.674;23.282;2022-09-09T10:08:02;12.98;;;6.10;;
6392;SDS011;3229;42.674;23.282;2022-09-09T10:10:34;6.80;;;4.93;;
6392;SDS011;3229;42.674;23.282;2022-09-09T10:13:17;9.20;;;5.30;;
6392;SDS011;3229;42.674;23.282;2022-09-09T10:15:52;14.40;;;4.93;;
6392;SDS011;3229;42.674;23.282;2022-09-09T10:18:45;9.13;;;5.35;;
6392;SDS011;3229;42.674;23.282;2022-09-09T10:21:23;10.20;;;5.32;;
6392;SDS011;3229;42.674;23.282;2022-09-09T10:24:05;6.72;;;5.10;;
6392;SDS011;3229;42.674;23.282;2022-09-09T10:26:48;7.32;;;5.20;;
6392;SDS011;3229;42.674;23.282;2022-09-09T10:29:32;11.27;;;5.50;;
6392;SDS011;3229;42.674;23.282;2022-09-09T10:32:14;9.48;;;5.57;;
6392;SDS011;3229;42.674;23.282;2022-09-09T10:35:00;8.30;;;5.60;;
6392;SDS011;3229;42.674;23.282;2022-09-09T10:37:35;9.48;;;5.63;;
6392;SDS011;3229;42.674;23.282;2022-09-09T10:40:15;12.73;;;5.85;;
6392;SDS011;3229;42.674;23.282;2022-09-09T10:42:58;7.25;;;5.53;;
6392;SDS011;3229;42.674;23.282;2022-09-09T10:45:35;11.90;;;5.70;;
6392;SDS011;3229;42.674;23.282;2022-09-09T10:48:21;11.13;;;6.68;;
6392;SDS011;3229;42.674;23.282;2022-09-09T10:51:01;11.30;;;6.18;;
6392;SDS011;3229;42.674;23.282;2022-09-09T10:53:44;11.98;;;5.63;;
6392;SDS011;3229;42.674;23.282;2022-09-09T10:56:20;8.68;;;6.25;;
6392;SDS011;3229;42.674;23.282;2022-09-09T10:58:51;8.52;;;6.63;;
6392;SDS011;3229;42.674;23.282;2022-09-09T11:01:24;9.70;;;6.05;;
6392;SDS011;3229;42.674;23.282;2022-09-09T11:03:56;7.00;;;6.30;;
6392;SDS011;3229;42.674;23.282;2022-09-09T11:06:29;12.63;;;7.13;;
6392;SDS011;3229;42.674;23.282;2022-09-09T11:09:01;10.85;;;6.55;;
6392;SDS011;3229;42.674;23.282;2022-09-09T11:11:32;7.85;;;5.70;;
6392;SDS011;3229;42.674;23.282;2022-09-09T11:14:05;9.52;;;6.68;;
6392;SDS011;3229;42.674;23.282;2022-09-09T11:16:40;10.45;;;5.88;;
6392;SDS011;3229;42.674;23.282;2022-09-09T11:19:14;10.73;;;7.20;;
6392;SDS011;3229;42.674;23.282;2022-09-09T11:21:48;13.68;;;7.05;;
6392;SDS011;3229;42.674;23.282;2022-09-09T11:24:18;12.45;;;6.28;;
6392;SDS011;3229;42.674;23.282;2022-09-09T11:26:51;18.05;;;7.03;;
6392;SDS011;3229;42.674;23.282;2022-09-09T11:29:32;12.38;;;6.22;;
6392;SDS011;3229;42.674;23.282;2022-09-09T11:32:33;11.93;;;6.70;;
6392;SDS011;3229;42.674;23.282;2022-09-09T11:35:20;9.15;;;6.88;;
6392;SDS011;3229;42.674;23.282;2022-09-09T11:38:04;13.13;;;6.32;;
6392;SDS011;3229;42.674;23.282;2022-09-09T11:40:44;11.70;;;6.97;;
6392;SDS011;3229;42.674;23.282;2022-09-09T11:43:13;14.30;;;7.03;;
6392;SDS011;3229;42.674;23.282;2022-09-09T11:45:43;9.90;;;6.07;;
6392;SDS011;3229;42.674;23.282;2022-09-09T11:48:25;9.45;;;7.05;;
6392;SDS011;3229;42.674;23.282;2022-09-09T11:51:00;10.23;;;6.72;;
6392;SDS011;3229;42.674;23.282;2022-09-09T11:53:30;9.60;;;6.45;;
6392;SDS011;3229;42.674;23.282;2022-09-09T11:56:09;11.65;;;6.90;;
6392;SDS011;3229;42.674;23.282;2022-09-09T11:58:39;8.05;;;5.93;;
6392;SDS011;3229;42.674;23.282;2022-09-09T12:01:33;13.85;;;6.50;;
6392;SDS011;3229;42.674;23.282;2022-09-09T12:07:00;14.88;;;7.28;;
6392;SDS011;3229;42.674;23.282;2022-09-09T12:09:33;14.70;;;7.10;;
6392;SDS011;3229;42.674;23.282;2022-09-09T12:15:00;10.23;;;7.15;;
6392;SDS011;3229;42.674;23.282;2022-09-09T12:17:46;9.20;;;6.63;;
6392;SDS011;3229;42.674;23.282;2022-09-09T12:20:17;11.02;;;6.80;;
6392;SDS011;3229;42.674;23.282;2022-09-09T12:23:02;8.85;;;6.60;;
6392;SDS011;3229;42.674;23.282;2022-09-09T12:25:47;9.68;;;6.32;;
6392;SDS011;3229;42.674;23.282;2022-09-09T12:28:22;13.73;;;6.57;;
6392;SDS011;3229;42.674;23.282;2022-09-09T12:30:55;11.00;;;6.82;;
6392;SDS011;3229;42.674;23.282;2022-09-09T12:33:32;9.48;;;6.53;;
6392;SDS011;3229;42.674;23.282;2022-09-09T12:36:02;9.82;;;7.43;;
6392;SDS011;3229;42.674;23.282;2022-09-09T12:38:32;9.32;;;6.90;;
6392;SDS011;3229;42.674;23.282;2022-09-09T12:41:00;10.35;;;6.00;;
6392;SDS011;3229;42.674;23.282;2022-09-09T12:43:27;11.25;;;6.47;;
6392;SDS011;3229;42.674;23.282;2022-09-09T12:45:56;9.52;;;4.90;;
6392;SDS011;3229;42.674;23.282;2022-09-09T12:48:30;10.25;;;5.75;;
6392;SDS011;3229;42.674;23.282;2022-09-09T12:51:05;8.18;;;5.40;;
6392;SDS011;3229;42.674;23.282;2022-09-09T12:53:42;9.18;;;5.40;;
6392;SDS011;3229;42.674;23.282;2022-09-09T12:56:18;11.75;;;5.00;;
6392;SDS011;3229;42.674;23.282;2022-09-09T12:58:47;8.65;;;5.50;;
6392;SDS011;3229;42.674;23.282;2022-09-09T13:01:21;11.30;;;6.10;;
6392;SDS011;3229;42.674;23.282;2022-09-09T13:03:49;8.82;;;5.55;;
6392;SDS011;3229;42.674;23.282;2022-09-09T13:06:20;10.57;;;4.90;;
6392;SDS011;3229;42.674;23.282;2022-09-09T13:08:49;11.65;;;4.95;;
6392;SDS011;3229;42.674;23.282;2022-09-09T13:11:16;10.73;;;4.90;;
6392;SDS011;3229;42.674;23.282;2022-09-09T13:13:50;7.72;;;4.75;;
6392;SDS011;3229;42.674;23.282;2022-09-09T13:16:20;8.00;;;4.85;;
6392;SDS011;3229;42.674;23.282;2022-09-09T13:18:48;10.32;;;5.25;;
6392;SDS011;3229;42.674;23.282;2022-09-09T13:21:15;8.68;;;5.47;;
6392;SDS011;3229;42.674;23.282;2022-09-09T13:23:48;9.13;;;5.50;;
6392;SDS011;3229;42.674;23.282;2022-09-09T13:26:21;13.52;;;6.65;;
6392;SDS011;3229;42.674;23.282;2022-09-09T13:28:51;19.00;;;7.30;;
6392;SDS011;3229;42.674;23.282;2022-09-09T13:31:20;14.27;;;6.70;;
6392;SDS011;3229;42.674;23.282;2022-09-09T13:33:48;11.35;;;6.50;;
6392;SDS011;3229;42.674;23.282;2022-09-09T13:36:16;11.95;;;6.70;;
6392;SDS011;3229;42.674;23.282;2022-09-09T13:38:57;13.88;;;6.82;;
6392;SDS011;3229;42.674;23.282;2022-09-09T13:41:27;10.20;;;6.55;;
6392;SDS011;3229;42.674;23.282;2022-09-09T13:43:57;14.88;;;6.97;;
6392;SDS011;3229;42.674;23.282;2022-09-09T13:46:25;18.17;;;6.72;;
6392;SDS011;3229;42.674;23.282;2022-09-09T13:48:57;11.70;;;6.13;;
6392;SDS011;3229;42.674;23.282;2022-09-09T13:51:29;11.55;;;6.55;;
6392;SDS011;3229;42.674;23.282;2022-09-09T13:54:03;9.30;;;6.45;;
6392;SDS011;3229;42.674;23.282;2022-09-09T13:56:31;16.83;;;6.28;;
6392;SDS011;3229;42.674;23.282;2022-09-09T13:58:58;14.02;;;7.20;;
6392;SDS011;3229;42.674;23.282;2022-09-09T14:01:25;13.48;;;6.32;;
6392;SDS011;3229;42.674;23.282;2022-09-09T14:03:53;9.73;;;6.18;;
6392;SDS011;3229;42.674;23.282;2022-09-09T14:06:20;15.27;;;7.05;;
6392;SDS011;3229;42.674;23.282;2022-09-09T14:08:48;11.15;;;6.55;;
6392;SDS011;3229;42.674;23.282;2022-09-09T14:11:17;8.65;;;6.43;;
6392;SDS011;3229;42.674;23.282;2022-09-09T14:13:46;9.65;;;6.15;;
6392;SDS011;3229;42.674;23.282;2022-09-09T14:16:15;6.28;;;5.25;;
6392;SDS011;3229;42.674;23.282;2022-09-09T14:18:42;11.40;;;6.20;;
6392;SDS011;3229;42.674;23.282;2022-09-09T14:21:10;11.60;;;5.75;;
6392;SDS011;3229;42.674;23.282;2022-09-09T14:23:37;13.70;;;5.97;;
6392;SDS011;3229;42.674;23.282;2022-09-09T14:26:04;8.60;;;6.07;;
6392;SDS011;3229;42.674;23.282;2022-09-09T14:28:33;12.07;;;6.60;;
6392;SDS011;3229;42.674;23.282;2022-09-09T14:31:01;12.93;;;6.22;;
6392;SDS011;3229;42.674;23.282;2022-09-09T14:33:29;11.85;;;6.05;;
6392;SDS011;3229;42.674;23.282;2022-09-09T14:35:56;10.60;;;6.85;;
6392;SDS011;3229;42.674;23.282;2022-09-09T14:38:24;10.25;;;6.53;;
6392;SDS011;3229;42.674;23.282;2022-09-09T14:40:51;11.32;;;6.63;;
6392;SDS011;3229;42.674;23.282;2022-09-09T14:43:19;9.52;;;6.35;;
6392;SDS011;3229;42.674;23.282;2022-09-09T14:45:47;10.60;;;6.53;;
6392;SDS011;3229;42.674;23.282;2022-09-09T14:48:16;11.40;;;6.45;;
6392;SDS011;3229;42.674;23.282;2022-09-09T14:50:43;8.90;;;6.25;;
6392;SDS011;3229;42.674;23.282;2022-09-09T14:53:10;15.65;;;6.32;;
6392;SDS011;3229;42.674;23.282;2022-09-09T14:55:37;14.23;;;7.32;;
6392;SDS011;3229;42.674;23.282;2022-09-09T14:58:04;9.80;;;6.22;;
6392;SDS011;3229;42.674;23.282;2022-09-09T15:00:31;11.13;;;6.35;;
6392;SDS011;3229;42.674;23.282;2022-09-09T15:02:59;19.25;;;7.13;;
6392;SDS011;3229;42.674;23.282;2022-09-09T15:05:26;14.35;;;6.93;;
6392;SDS011;3229;42.674;23.282;2022-09-09T15:07:53;16.13;;;6.90;;
6392;SDS011;3229;42.674;23.282;2022-09-09T15:10:20;15.63;;;6.70;;
6392;SDS011;3229;42.674;23.282;2022-09-09T15:12:47;16.17;;;6.70;;
6392;SDS011;3229;42.674;23.282;2022-09-09T15:15:13;12.00;;;7.15;;
6392;SDS011;3229;42.674;23.282;2022-09-09T15:17:40;8.73;;;6.35;;
6392;SDS011;3229;42.674;23.282;2022-09-09T15:20:09;10.93;;;6.72;;
6392;SDS011;3229;42.674;23.282;2022-09-09T15:22:36;12.65;;;7.15;;
6392;SDS011;3229;42.674;23.282;2022-09-09T15:25:05;12.40;;;6.70;;
6392;SDS011;3229;42.674;23.282;2022-09-09T15:27:33;12.77;;;6.75;;
6392;SDS011;3229;42.674;23.282;2022-09-09T15:30:00;9.75;;;6.72;;